createdAt,value
2023-11-28T00:00:32.951Z,79.72
2023-11-28T00:02:59.642Z,79.52
2023-11-28T00:05:26.580Z,79.61
2023-11-28T00:07:53.135Z,79.44
2023-11-28T00:10:19.836Z,79.49
2023-11-28T00:12:46.364Z,79.47
2023-11-28T00:15:12.913Z,79.39
2023-11-28T00:17:39.526Z,79.64
2023-11-28T00:20:07.041Z,79.02
2023-11-28T00:22:33.585Z,78.90
2023-11-28T00:25:00.186Z,79.41
2023-11-28T00:27:26.687Z,79.90
2023-11-28T00:29:54.806Z,79.56
2023-11-28T00:32:21.344Z,79.98
2023-11-28T00:34:47.881Z,79.74
2023-11-28T00:37:14.430Z,79.50
2023-11-28T00:39:41.265Z,79.59
2023-11-28T00:42:07.941Z,79.96
2023-11-28T00:44:34.426Z,80.04
2023-11-28T00:47:01.108Z,79.59
2023-11-28T00:49:27.744Z,79.40
2023-11-28T00:51:54.992Z,79.27
2023-11-28T00:54:22.200Z,79.39
2023-11-28T00:56:50.179Z,79.46
2023-11-28T00:59:16.650Z,78.86
2023-11-28T01:01:43.331Z,79.10
2023-11-28T01:04:09.936Z,79.33
2023-11-28T01:06:36.952Z,79.36
2023-11-28T01:09:04.318Z,79.48
2023-11-28T01:11:30.884Z,79.55
2023-11-28T01:13:57.402Z,80.10
2023-11-28T01:16:24.627Z,79.67
2023-11-28T01:18:51.887Z,79.95
2023-11-28T01:21:18.429Z,80.14
2023-11-28T01:23:44.964Z,80.21
2023-11-28T01:26:11.475Z,80.81
2023-11-28T01:28:38.018Z,80.36
2023-11-28T01:31:06.032Z,80.50
2023-11-28T01:33:32.824Z,80.44
2023-11-28T01:35:59.347Z,80.12
2023-11-28T01:38:26.891Z,80.58
2023-11-28T01:40:53.391Z,80.78
2023-11-28T01:43:27.271Z,80.51
2023-11-28T01:45:54.519Z,80.12
2023-11-28T01:48:21.047Z,80.13
2023-11-28T01:50:51.995Z,80.53
2023-11-28T01:53:21.665Z,80.44
2023-11-28T01:55:50.056Z,80.58
2023-11-28T01:58:16.788Z,80.41
2023-11-28T02:00:45.060Z,80.19
2023-11-28T02:03:14.956Z,80.43
2023-11-28T02:05:42.048Z,79.82
2023-11-28T02:08:08.981Z,80.02
2023-11-28T02:10:37.027Z,79.64
2023-11-28T02:13:04.575Z,79.62
2023-11-28T02:15:45.674Z,79.78
2023-11-28T02:18:13.742Z,79.71
2023-11-28T02:20:41.224Z,79.70
2023-11-28T02:23:08.572Z,79.65
2023-11-28T02:25:48.387Z,79.44
2023-11-28T02:28:20.085Z,79.50
2023-11-28T02:30:47.877Z,79.51
2023-11-28T02:33:14.642Z,79.18
2023-11-28T02:35:41.560Z,78.95
2023-11-28T02:38:08.752Z,79.17
2023-11-28T02:40:36.520Z,78.92
2023-11-28T02:43:03.131Z,78.84
2023-11-28T02:45:29.680Z,78.85
2023-11-28T02:47:56.282Z,78.77
2023-11-28T02:50:22.754Z,78.82
2023-11-28T02:52:49.320Z,78.90
2023-11-28T02:55:15.910Z,79.13
2023-11-28T02:57:42.901Z,79.17
2023-11-28T03:00:10.018Z,78.93
2023-11-28T03:02:37.575Z,78.77
2023-11-28T03:05:04.690Z,79.12
2023-11-28T03:07:31.226Z,79.37
2023-11-28T03:09:57.781Z,79.44
2023-11-28T03:12:24.669Z,79.71
2023-11-28T03:14:51.349Z,79.89
2023-11-28T03:17:17.892Z,79.66
2023-11-28T03:19:44.465Z,80.44
2023-11-28T03:22:10.980Z,80.79
2023-11-28T03:24:37.448Z,80.75
2023-11-28T03:27:04.002Z,80.53
2023-11-28T03:29:30.575Z,81.11
2023-11-28T03:31:57.129Z,81.15
2023-11-28T03:34:23.626Z,80.10
2023-11-28T03:36:53.182Z,80.39
2023-11-28T03:39:20.567Z,80.43
2023-11-28T03:41:50.861Z,80.63
2023-11-28T03:44:17.331Z,80.34
2023-11-28T03:46:44.713Z,80.22
2023-11-28T03:49:11.278Z,79.81
2023-11-28T03:51:39.574Z,80.24
2023-11-28T03:54:06.748Z,80.36
2023-11-28T03:56:33.286Z,80.19
2023-11-28T03:59:02.310Z,80.29
2023-11-28T04:01:29.097Z,80.11
2023-11-28T04:03:55.750Z,80.36
2023-11-28T04:06:22.952Z,80.07
2023-11-28T04:08:52.511Z,80.31
2023-11-28T04:11:19.366Z,80.10
2023-11-28T04:13:46.238Z,79.98
2023-11-28T04:16:19.712Z,79.84
2023-11-28T04:18:48.764Z,80.27
2023-11-28T04:21:16.806Z,79.41
2023-11-28T04:23:47.552Z,79.85
2023-11-28T04:26:15.314Z,79.68
2023-11-28T04:28:41.980Z,79.74
2023-11-28T04:31:20.979Z,80.11
2023-11-28T04:33:51.630Z,79.73
2023-11-28T04:36:18.834Z,79.77
2023-11-28T04:38:46.128Z,79.77
2023-11-28T04:41:14.617Z,80.33
2023-11-28T04:43:43.345Z,80.16
2023-11-28T04:46:10.223Z,80.14
2023-11-28T04:48:36.881Z,79.89
2023-11-28T04:51:05.110Z,79.66
2023-11-28T04:53:31.745Z,80.34
2023-11-28T04:55:58.544Z,80.22
2023-11-28T04:58:25.110Z,80.79
2023-11-28T05:00:52.039Z,80.81
2023-11-28T05:03:18.972Z,80.38
2023-11-28T05:05:45.707Z,80.48
2023-11-28T05:08:14.348Z,80.40
2023-11-28T05:10:41.007Z,80.83
2023-11-28T05:13:10.637Z,80.42
2023-11-28T05:15:37.455Z,80.42
2023-11-28T05:18:04.993Z,80.57
2023-11-28T05:20:31.584Z,80.99
2023-11-28T05:22:58.191Z,80.31
2023-11-28T05:25:25.824Z,80.48
2023-11-28T05:27:52.610Z,80.49
2023-11-28T05:30:19.389Z,80.21
2023-11-28T05:32:46.352Z,80.66
2023-11-28T05:35:13.066Z,80.70
2023-11-28T05:37:40.073Z,80.65
2023-11-28T05:40:10.770Z,80.09
2023-11-28T05:42:38.143Z,80.32
2023-11-28T05:45:07.026Z,80.65
2023-11-28T05:47:33.793Z,80.45
2023-11-28T05:50:01.887Z,80.04
2023-11-28T05:52:29.459Z,79.57
2023-11-28T05:54:56.271Z,80.20
2023-11-28T05:57:22.930Z,80.23
2023-11-28T05:59:51.542Z,80.19
2023-11-28T06:02:18.243Z,80.17
2023-11-28T06:04:44.841Z,80.19
2023-11-28T06:07:11.535Z,79.75
2023-11-28T06:09:38.234Z,79.52
2023-11-28T06:12:05.057Z,79.83
2023-11-28T06:14:31.797Z,79.71
2023-11-28T06:17:00.997Z,80.48
2023-11-28T06:19:28.621Z,80.44
2023-11-28T06:21:55.185Z,80.21
2023-11-28T06:24:21.689Z,80.33
2023-11-28T06:26:48.167Z,80.15
2023-11-28T06:29:14.715Z,79.83
2023-11-28T06:31:41.305Z,79.70
2023-11-28T06:34:07.810Z,79.68
2023-11-28T06:36:35.981Z,79.82
2023-11-28T06:39:02.453Z,80.00
2023-11-28T06:41:28.983Z,79.65
2023-11-28T06:43:56.106Z,79.43
2023-11-28T06:46:22.886Z,79.50
2023-11-28T06:48:49.947Z,79.77
2023-11-28T06:51:16.884Z,79.28
2023-11-28T06:53:43.541Z,79.73
2023-11-28T06:56:10.669Z,79.74
2023-11-28T06:58:37.536Z,79.59
2023-11-28T07:01:04.534Z,80.39
2023-11-28T07:03:32.905Z,80.43
2023-11-28T07:06:00.392Z,79.87
2023-11-28T07:08:26.933Z,80.11
2023-11-28T07:10:53.496Z,79.81
2023-11-28T07:13:20.649Z,79.65
2023-11-28T07:15:47.479Z,79.78
2023-11-28T07:18:21.061Z,79.01
2023-11-28T07:20:51.515Z,79.37
2023-11-28T07:23:18.678Z,79.53
2023-11-28T07:25:46.499Z,79.48
2023-11-28T07:28:13.090Z,79.51
2023-11-28T07:30:39.631Z,79.52
2023-11-28T07:33:06.107Z,79.49
2023-11-28T07:35:32.628Z,78.72
2023-11-28T07:37:59.148Z,79.18
2023-11-28T07:40:27.395Z,78.92
2023-11-28T07:42:54.696Z,78.84
2023-11-28T07:45:21.578Z,79.47
2023-11-28T07:47:48.493Z,79.50
2023-11-28T07:50:15.474Z,80.01
2023-11-28T07:52:42.061Z,80.19
2023-11-28T07:55:09.756Z,79.44
2023-11-28T07:57:36.698Z,79.44
2023-11-28T08:00:06.436Z,79.25
2023-11-28T08:02:39.427Z,79.06
2023-11-28T08:05:06.470Z,78.85
2023-11-28T08:07:36.568Z,79.33
2023-11-28T08:10:06.548Z,79.89
2023-11-28T08:12:33.036Z,79.93
2023-11-28T08:14:59.535Z,79.81
2023-11-28T08:17:26.342Z,80.49
2023-11-28T08:19:52.906Z,80.58
2023-11-28T08:22:20.741Z,80.00
2023-11-28T08:24:47.338Z,80.23
2023-11-28T08:27:16.997Z,79.92
2023-11-28T08:29:43.597Z,80.51
2023-11-28T08:32:10.666Z,79.59
2023-11-28T08:34:37.318Z,79.55
2023-11-28T08:37:04.164Z,79.86
2023-11-28T08:39:30.706Z,79.65
2023-11-28T08:41:57.314Z,80.28
2023-11-28T08:44:24.008Z,79.67
2023-11-28T08:46:50.692Z,79.09
2023-11-28T08:49:17.619Z,78.92
2023-11-28T08:51:44.245Z,79.12
2023-11-28T08:54:11.610Z,79.44
2023-11-28T08:56:38.118Z,78.79
2023-11-28T08:59:04.734Z,78.83
2023-11-28T09:01:31.404Z,79.53
2023-11-28T09:04:01.467Z,79.53
2023-11-28T09:06:28.802Z,78.69
2023-11-28T09:08:55.601Z,78.75
2023-11-28T09:11:22.380Z,79.12
2023-11-28T09:13:48.966Z,78.67
2023-11-28T09:16:15.587Z,79.35
2023-11-28T09:18:42.521Z,79.04
2023-11-28T09:21:09.849Z,80.17
2023-11-28T09:23:36.389Z,79.47
2023-11-28T09:26:03.637Z,79.33
2023-11-28T09:28:33.467Z,79.00
2023-11-28T09:30:59.957Z,79.53
2023-11-28T09:33:26.848Z,79.61
2023-11-28T09:35:54.410Z,80.10
2023-11-28T09:38:21.072Z,79.99
2023-11-28T09:40:47.730Z,79.92
2023-11-28T09:43:14.966Z,80.42
2023-11-28T09:45:42.654Z,79.49
2023-11-28T09:48:14.558Z,79.52
2023-11-28T09:50:44.916Z,79.62
2023-11-28T09:53:12.759Z,79.70
2023-11-28T09:55:41.325Z,79.00
2023-11-28T09:58:08.377Z,78.38
2023-11-28T10:00:36.481Z,78.35
2023-11-28T10:03:04.444Z,78.79
2023-11-28T10:05:31.442Z,78.14
2023-11-28T10:07:58.612Z,78.68
2023-11-28T10:10:25.937Z,78.92
2023-11-28T10:12:54.766Z,78.77
2023-11-28T10:15:27.032Z,79.27
2023-11-28T10:17:53.662Z,79.13
2023-11-28T10:20:20.532Z,78.90
2023-11-28T10:22:53.803Z,79.65
2023-11-28T10:25:27.025Z,79.09
2023-11-28T10:27:59.617Z,79.43
2023-11-28T10:30:26.508Z,79.16
2023-11-28T10:32:53.141Z,78.71
2023-11-28T10:35:19.847Z,78.18
2023-11-28T10:37:47.343Z,78.78
2023-11-28T10:40:19.270Z,78.05
2023-11-28T10:42:46.189Z,79.19
2023-11-28T10:45:16.491Z,78.50
2023-11-28T10:47:44.379Z,78.96
2023-11-28T10:50:11.641Z,78.93
2023-11-28T10:52:40.237Z,78.28
2023-11-28T10:55:11.221Z,77.88
2023-11-28T10:57:45.002Z,77.39
2023-11-28T11:00:13.314Z,76.16
2023-11-28T11:02:40.613Z,75.81
2023-11-28T11:05:08.881Z,76.23
2023-11-28T11:07:36.170Z,75.47
2023-11-28T11:10:09.715Z,76.00
2023-11-28T11:12:40.660Z,75.82
2023-11-28T11:15:25.808Z,75.37
2023-11-28T11:18:06.929Z,75.00
2023-11-28T11:20:38.361Z,75.00
2023-11-28T11:23:07.154Z,75.39
2023-11-28T11:25:41.522Z,74.71
2023-11-28T11:28:09.351Z,75.16
2023-11-28T11:30:39.587Z,74.17
2023-11-28T11:33:08.503Z,74.90
2023-11-28T11:36:15.382Z,76.01
2023-11-28T11:38:42.008Z,76.30
2023-11-28T11:41:12.283Z,77.05
2023-11-28T11:43:42.905Z,76.34
2023-11-28T11:46:14.842Z,76.33
2023-11-28T11:48:42.927Z,75.64
2023-11-28T11:51:10.784Z,76.22
2023-11-28T11:53:43.001Z,77.02
2023-11-28T11:56:10.083Z,76.08
2023-11-28T11:58:38.037Z,76.31
2023-11-28T12:01:05.426Z,75.55
2023-11-28T12:03:32.883Z,75.76
2023-11-28T12:06:00.332Z,75.87
2023-11-28T12:08:27.980Z,76.25
2023-11-28T12:11:09.822Z,75.55
2023-11-28T12:13:37.948Z,75.96
2023-11-28T12:16:05.116Z,76.73
2023-11-28T12:18:32.357Z,76.44
2023-11-28T12:20:59.331Z,76.37
2023-11-28T12:23:26.192Z,76.53
2023-11-28T12:25:54.376Z,76.09
2023-11-28T12:28:20.908Z,75.93
2023-11-28T12:30:49.255Z,76.60
2023-11-28T12:33:15.866Z,76.22
2023-11-28T12:35:46.465Z,75.77
2023-11-28T12:38:13.061Z,75.29
2023-11-28T12:40:39.728Z,75.98
2023-11-28T12:43:06.300Z,75.80
2023-11-28T12:45:34.214Z,76.68
2023-11-28T12:48:00.878Z,76.07
2023-11-28T12:50:28.968Z,76.55
2023-11-28T12:52:55.536Z,76.73
2023-11-28T12:55:23.390Z,77.53
2023-11-28T12:57:51.110Z,77.79
2023-11-28T13:00:17.638Z,77.98
2023-11-28T13:02:44.397Z,77.89
2023-11-28T13:05:11.931Z,77.53
2023-11-28T13:07:45.041Z,76.79
2023-11-28T13:10:16.918Z,76.86
2023-11-28T13:12:43.706Z,76.14
2023-11-28T13:15:12.344Z,76.42
2023-11-28T13:17:39.509Z,76.92
2023-11-28T13:20:07.785Z,77.45
2023-11-28T13:22:34.433Z,76.69
2023-11-28T13:25:00.925Z,76.63
2023-11-28T13:27:27.431Z,79.38
2023-11-28T13:29:54.245Z,80.66
2023-11-28T13:32:20.792Z,81.17
2023-11-28T13:34:47.432Z,80.97
2023-11-28T13:37:14.506Z,80.40
2023-11-28T13:39:45.033Z,79.81
2023-11-28T13:42:12.636Z,80.45
2023-11-28T13:44:39.153Z,80.87
2023-11-28T13:47:07.704Z,81.11
2023-11-28T13:49:34.390Z,81.90
2023-11-28T13:52:02.014Z,81.36
2023-11-28T13:54:28.852Z,80.61
2023-11-28T13:56:55.301Z,81.09
2023-11-28T13:59:21.815Z,80.53
2023-11-28T14:01:48.568Z,80.80
2023-11-28T14:04:15.417Z,80.53
2023-11-28T14:06:42.413Z,80.22
2023-11-28T14:09:15.804Z,80.31
2023-11-28T14:11:42.566Z,80.74
2023-11-28T14:14:09.112Z,80.60
2023-11-28T14:16:35.747Z,80.83
2023-11-28T14:19:02.417Z,81.27
2023-11-28T14:21:30.607Z,81.24
2023-11-28T14:23:57.291Z,80.92
2023-11-28T14:26:23.895Z,81.44
2023-11-28T14:28:50.440Z,81.02
2023-11-28T14:31:20.064Z,81.00
2023-11-28T14:33:46.577Z,80.71
2023-11-28T14:36:13.451Z,79.42
2023-11-28T14:38:40.017Z,79.57
2023-11-28T14:41:06.767Z,79.60
2023-11-28T14:43:33.258Z,79.79
2023-11-28T14:45:59.732Z,79.67
2023-11-28T14:48:26.276Z,79.49
2023-11-28T14:50:52.889Z,79.76
2023-11-28T14:53:19.387Z,79.52
2023-11-28T14:55:45.855Z,80.01
2023-11-28T14:58:12.298Z,79.81
2023-11-28T15:00:41.099Z,79.86
2023-11-28T15:03:07.769Z,79.81
2023-11-28T15:05:34.544Z,79.55
2023-11-28T15:08:01.392Z,80.39
2023-11-28T15:10:27.983Z,80.69
2023-11-28T15:12:59.195Z,81.13
2023-11-28T15:15:46.108Z,80.65
2023-11-28T15:18:12.572Z,81.52
2023-11-28T15:20:39.120Z,80.84
2023-11-28T15:23:07.445Z,80.61
2023-11-28T15:25:35.193Z,80.40
2023-11-28T15:28:02.801Z,80.43
2023-11-28T15:30:29.325Z,79.62
2023-11-28T15:32:55.974Z,79.80
2023-11-28T15:35:24.049Z,79.50
2023-11-28T15:37:55.465Z,79.97
2023-11-28T15:40:27.720Z,79.71
2023-11-28T15:42:54.263Z,79.68
2023-11-28T15:45:21.592Z,79.65
2023-11-28T15:47:48.446Z,79.32
2023-11-28T15:50:15.038Z,79.41
2023-11-28T15:52:41.571Z,79.20
2023-11-28T15:55:08.292Z,79.14
2023-11-28T15:57:34.937Z,79.04
2023-11-28T16:00:02.125Z,78.69
2023-11-28T16:02:31.345Z,78.69
2023-11-28T16:04:58.894Z,78.43
2023-11-28T16:07:25.971Z,78.44
2023-11-28T16:09:52.538Z,78.60
2023-11-28T16:12:19.711Z,78.03
2023-11-28T16:14:48.506Z,78.25
2023-11-28T16:17:16.593Z,77.59
2023-11-28T16:19:44.467Z,77.03
2023-11-28T16:22:11.493Z,76.91
2023-11-28T16:24:38.118Z,77.19
2023-11-28T16:27:05.085Z,76.89
2023-11-28T16:29:34.614Z,76.46
2023-11-28T16:32:01.874Z,76.23
2023-11-28T16:34:28.463Z,76.53
2023-11-28T16:36:54.979Z,76.19
2023-11-28T16:39:21.637Z,76.52
2023-11-28T16:41:48.188Z,76.94
2023-11-28T16:44:15.684Z,76.63
2023-11-28T16:46:42.289Z,76.73
2023-11-28T16:49:12.132Z,76.83
2023-11-28T16:51:39.894Z,76.87
2023-11-28T16:54:07.518Z,76.81
2023-11-28T16:56:34.330Z,76.07
2023-11-28T16:59:00.976Z,76.34
2023-11-28T17:01:28.727Z,76.08
2023-11-28T17:03:55.289Z,76.24
2023-11-28T17:06:21.819Z,75.91
2023-11-28T17:08:48.309Z,75.69
2023-11-28T17:11:18.302Z,75.93
2023-11-28T17:13:44.850Z,75.85
2023-11-28T17:16:11.575Z,76.38
2023-11-28T17:18:38.304Z,75.86
2023-11-28T17:21:04.996Z,76.04
2023-11-28T17:23:35.027Z,76.05
2023-11-28T17:26:02.467Z,75.96
2023-11-28T17:28:30.648Z,75.95
2023-11-28T17:30:57.799Z,75.82
2023-11-28T17:33:24.570Z,76.03
2023-11-28T17:35:51.196Z,75.91
2023-11-28T17:38:19.208Z,75.82
2023-11-28T17:40:45.764Z,76.34
2023-11-28T17:43:12.316Z,75.95
2023-11-28T17:45:38.967Z,75.60
2023-11-28T17:48:05.962Z,76.34
2023-11-28T17:50:32.733Z,75.96
2023-11-28T17:52:59.257Z,76.17
2023-11-28T17:55:25.765Z,75.58
2023-11-28T17:57:54.419Z,75.95
2023-11-28T18:00:23.157Z,76.00
2023-11-28T18:02:50.439Z,75.63
2023-11-28T18:05:21.064Z,76.05
2023-11-28T18:07:48.529Z,76.03
2023-11-28T18:10:15.259Z,76.10
2023-11-28T18:12:41.812Z,76.01
2023-11-28T18:15:22.594Z,76.54
2023-11-28T18:17:55.314Z,76.36
2023-11-28T18:20:22.184Z,76.30
2023-11-28T18:22:49.810Z,76.00
2023-11-28T18:25:17.056Z,76.38
2023-11-28T18:27:43.725Z,75.11
2023-11-28T18:30:10.579Z,75.93
2023-11-28T18:32:37.151Z,75.90
2023-11-28T18:35:04.570Z,75.36
2023-11-28T18:37:31.157Z,74.91
2023-11-28T18:39:57.670Z,74.62
2023-11-28T18:42:24.218Z,74.30
2023-11-28T18:44:52.598Z,74.89
2023-11-28T18:47:19.458Z,74.93
2023-11-28T18:49:47.017Z,74.54
2023-11-28T18:52:13.655Z,74.88
2023-11-28T18:54:40.281Z,75.25
2023-11-28T18:57:06.760Z,75.06
2023-11-28T18:59:35.528Z,74.29
2023-11-28T19:02:02.442Z,74.87
2023-11-28T19:04:29.162Z,74.51
2023-11-28T19:06:56.393Z,74.09
2023-11-28T19:09:23.900Z,73.45
2023-11-28T19:11:52.112Z,73.32
2023-11-28T19:14:18.778Z,73.57
2023-11-28T19:16:45.367Z,72.94
2023-11-28T19:19:12.141Z,73.60
2023-11-28T19:21:45.584Z,73.14
2023-11-28T19:24:13.419Z,73.37
2023-11-28T19:26:41.385Z,72.96
2023-11-28T19:29:08.271Z,72.81
2023-11-28T19:31:36.231Z,72.54
2023-11-28T19:34:04.024Z,72.36
2023-11-28T19:36:31.526Z,72.09
2023-11-28T19:38:58.165Z,72.30
2023-11-28T19:41:24.730Z,72.80
2023-11-28T19:43:53.340Z,72.53
2023-11-28T19:46:19.883Z,72.40
2023-11-28T19:48:46.509Z,71.68
2023-11-28T19:51:13.287Z,72.28
2023-11-28T19:53:40.001Z,71.63
2023-11-28T19:56:07.086Z,72.65
2023-11-28T19:58:33.706Z,71.75
2023-11-28T20:01:02.286Z,71.64
2023-11-28T20:03:29.070Z,71.87
2023-11-28T20:05:56.321Z,72.21
2023-11-28T20:08:23.053Z,71.99
2023-11-28T20:10:49.865Z,71.79
2023-11-28T20:13:16.633Z,72.62
2023-11-28T20:15:45.564Z,72.30
2023-11-28T20:18:12.207Z,72.48
2023-11-28T20:20:38.854Z,72.29
2023-11-28T20:23:05.477Z,72.17
2023-11-28T20:25:32.156Z,72.15
2023-11-28T20:27:58.656Z,71.47
2023-11-28T20:30:26.072Z,71.22
2023-11-28T20:32:52.639Z,71.41
2023-11-28T20:35:19.763Z,71.55
2023-11-28T20:37:46.371Z,72.22
2023-11-28T20:40:13.129Z,71.43
2023-11-28T20:42:39.889Z,71.43
2023-11-28T20:45:07.076Z,71.87
2023-11-28T20:47:34.139Z,70.84
2023-11-28T20:50:00.873Z,71.50
2023-11-28T20:52:27.452Z,71.26
2023-11-28T20:54:56.101Z,71.41
2023-11-28T20:57:22.933Z,71.66
2023-11-28T20:59:52.096Z,71.88
2023-11-28T21:02:19.465Z,72.10
2023-11-28T21:04:46.801Z,71.05
2023-11-28T21:07:13.474Z,70.99
2023-11-28T21:09:42.685Z,72.02
2023-11-28T21:12:09.418Z,71.73
2023-11-28T21:14:35.911Z,72.08
2023-11-28T21:17:02.490Z,71.67
2023-11-28T21:19:29.012Z,72.21
2023-11-28T21:21:56.879Z,71.50
2023-11-28T21:24:24.247Z,71.65
2023-11-28T21:26:50.842Z,71.49
2023-11-28T21:29:17.594Z,71.75
2023-11-28T21:31:45.754Z,71.24
2023-11-28T21:34:12.440Z,71.10
2023-11-28T21:36:41.526Z,70.52
2023-11-28T21:39:08.158Z,70.69
2023-11-28T21:41:35.007Z,70.88
2023-11-28T21:44:01.697Z,71.15
2023-11-28T21:46:28.344Z,70.83
2023-11-28T21:48:58.557Z,71.08
2023-11-28T21:51:25.435Z,71.58
2023-11-28T21:53:52.447Z,71.54
2023-11-28T21:56:19.070Z,71.00
2023-11-28T21:58:46.077Z,70.87
2023-11-28T22:01:13.172Z,71.22
2023-11-28T22:03:39.755Z,71.74
2023-11-28T22:06:07.155Z,71.60
2023-11-28T22:08:33.787Z,71.43
2023-11-28T22:11:00.465Z,71.77
2023-11-28T22:13:28.171Z,72.25
2023-11-28T22:15:54.830Z,72.35
2023-11-28T22:18:21.510Z,71.96
2023-11-28T22:20:48.105Z,71.94
2023-11-28T22:23:14.647Z,71.77
2023-11-28T22:25:41.228Z,71.65
2023-11-28T22:28:07.729Z,71.45
2023-11-28T22:30:35.286Z,71.77
2023-11-28T22:33:01.846Z,71.83
2023-11-28T22:35:29.282Z,70.99
2023-11-28T22:37:57.977Z,71.38
2023-11-28T22:40:24.430Z,71.56
2023-11-28T22:42:50.903Z,71.49
2023-11-28T22:45:18.512Z,71.81
2023-11-28T22:47:45.063Z,71.89
2023-11-28T22:50:11.688Z,71.73
2023-11-28T22:52:38.203Z,71.82
2023-11-28T22:55:06.763Z,72.15
2023-11-28T22:57:33.480Z,72.08
2023-11-28T23:00:01.424Z,71.87
2023-11-28T23:02:29.360Z,71.54
2023-11-28T23:04:55.936Z,72.11
2023-11-28T23:07:23.598Z,72.24
2023-11-28T23:09:50.297Z,72.28
2023-11-28T23:12:18.751Z,72.39
2023-11-28T23:14:46.181Z,71.69
2023-11-28T23:17:13.737Z,72.19
2023-11-28T23:19:40.295Z,71.56
2023-11-28T23:22:08.107Z,72.14
2023-11-28T23:24:34.937Z,71.94
2023-11-28T23:27:01.474Z,72.10
2023-11-28T23:29:28.759Z,72.12
2023-11-28T23:31:55.379Z,72.08
2023-11-28T23:34:21.898Z,71.37
2023-11-28T23:36:49.296Z,71.39
2023-11-28T23:39:20.425Z,71.65
2023-11-28T23:41:47.310Z,71.43
2023-11-28T23:44:13.862Z,71.20
2023-11-28T23:46:40.467Z,71.31
2023-11-28T23:49:07.175Z,71.13
2023-11-28T23:51:34.257Z,71.31
2023-11-28T23:54:00.945Z,71.37
2023-11-28T23:56:27.525Z,71.15
2023-11-28T23:58:54.133Z,70.48
